createdAt,value
2019-04-14T00:02:57.706Z,42.20
2019-04-14T00:05:28.220Z,41.80
2019-04-14T00:07:58.726Z,41.80
2019-04-14T00:10:33.258Z,41.90
2019-04-14T00:13:08.858Z,42.00
2019-04-14T00:15:44.847Z,42.00
2019-04-14T00:18:16.454Z,42.20
2019-04-14T00:20:57.751Z,42.20
2019-04-14T00:23:28.843Z,42.30
2019-04-14T00:26:29.438Z,42.40
2019-04-14T00:29:04.450Z,42.50
2019-04-14T00:31:39.111Z,42.60
2019-04-14T00:34:48.575Z,42.70
2019-04-14T00:37:33.692Z,42.80
2019-04-14T00:40:45.353Z,42.80
2019-04-14T00:43:41.749Z,43.10
2019-04-14T00:46:21.787Z,43.10
2019-04-14T00:48:51.870Z,43.20
2019-04-14T00:51:24.399Z,43.40
2019-04-14T00:53:55.626Z,43.40
2019-04-14T00:56:26.374Z,43.50
2019-04-14T00:58:58.230Z,43.70
2019-04-14T01:01:28.543Z,43.90
2019-04-14T01:04:01.167Z,43.90
2019-04-14T01:06:33.604Z,43.90
2019-04-14T01:09:26.080Z,44.10
2019-04-14T01:11:57.435Z,44.30
2019-04-14T01:14:31.959Z,44.30
2019-04-14T01:17:02.755Z,44.40
2019-04-14T01:19:33.100Z,44.60
2019-04-14T01:22:05.338Z,44.70
2019-04-14T01:24:36.730Z,44.90
2019-04-14T01:27:10.209Z,45.00
2019-04-14T01:29:40.513Z,45.00
2019-04-14T01:32:17.721Z,45.10
2019-04-14T01:34:51.147Z,45.20
2019-04-14T01:37:20.302Z,45.30
2019-04-14T01:40:49.285Z,45.30
2019-04-14T01:43:19.118Z,45.40
2019-04-14T01:46:09.661Z,45.40
2019-04-14T01:48:32.481Z,45.40
2019-04-14T01:51:11.542Z,45.40
2019-04-14T01:54:01.909Z,45.40
2019-04-14T01:56:51.381Z,46.00
2019-04-14T01:59:24.081Z,45.30
2019-04-14T02:01:59.016Z,45.30
2019-04-14T02:04:31.290Z,45.30
2019-04-14T02:07:01.641Z,45.30
2019-04-14T02:09:35.518Z,45.30
2019-04-14T02:12:08.336Z,45.30
2019-04-14T02:14:40.857Z,45.30
2019-04-14T02:17:11.347Z,45.40
2019-04-14T02:23:13.079Z,45.50
2019-04-14T02:25:45.238Z,45.40
2019-04-14T02:28:37.537Z,45.40
2019-04-14T02:31:43.308Z,45.60
2019-04-14T02:34:27.775Z,45.70
2019-04-14T02:50:08.002Z,46.00
2019-04-14T02:52:35.333Z,46.00
2019-04-14T02:55:04.253Z,46.10
2019-04-14T02:57:44.865Z,46.10
2019-04-14T03:00:18.837Z,46.30
2019-04-14T03:02:51.483Z,46.30
2019-04-14T03:05:27.018Z,46.40
2019-04-14T03:08:00.074Z,46.40
2019-04-14T03:10:34.084Z,46.40
2019-04-14T03:13:21.292Z,46.60
2019-04-14T03:15:44.832Z,46.70
2019-04-14T03:18:47.263Z,47.50
2019-04-14T03:21:21.189Z,47.00
2019-04-14T03:23:56.324Z,47.10
2019-04-14T03:26:51.937Z,47.20
2019-04-14T03:29:21.657Z,47.30
2019-04-14T03:33:14.234Z,47.30
2019-04-14T03:34:43.465Z,47.50
2019-04-14T03:39:43.709Z,47.50
2019-04-14T03:42:12.764Z,47.90
2019-04-14T03:44:43.567Z,47.90
2019-04-14T03:47:19.622Z,48.20
2019-04-14T03:50:04.286Z,48.30
2019-04-14T03:52:31.296Z,48.50
2019-04-14T03:54:52.278Z,48.50
2019-04-14T03:57:10.346Z,48.60
2019-04-14T03:59:39.499Z,48.80
2019-04-14T04:02:10.051Z,48.90
2019-04-14T04:04:40.181Z,49.00
2019-04-14T04:07:10.588Z,49.10
2019-04-14T04:09:54.085Z,49.20
2019-04-14T04:12:24.611Z,49.40
2019-04-14T04:14:55.318Z,49.30
2019-04-14T04:18:24.033Z,49.50
2019-04-14T04:22:04.181Z,49.50
2019-04-14T04:49:34.656Z,50.40
2019-04-14T04:52:13.985Z,50.70
2019-04-14T04:54:47.426Z,50.80
2019-04-14T04:57:19.987Z,50.90
2019-04-14T05:00:02.949Z,51.00
2019-04-14T05:02:39.361Z,51.10
2019-04-14T05:06:04.667Z,51.10
2019-04-14T05:09:18.799Z,51.10
2019-04-14T05:12:37.356Z,50.90
2019-04-14T05:15:40.738Z,50.80
2019-04-14T05:18:40.374Z,50.70
2019-04-14T05:21:43.095Z,50.70
2019-04-14T05:24:35.353Z,50.50
2019-04-14T05:27:23.251Z,50.50
2019-04-14T05:30:13.273Z,50.40
2019-04-14T05:33:40.544Z,50.30
2019-04-14T05:36:12.832Z,50.30
2019-04-14T05:38:51.804Z,50.20
2019-04-14T05:42:04.963Z,50.10
2019-04-14T05:50:48.969Z,49.90
2019-04-14T05:57:19.938Z,49.80
2019-04-14T06:04:24.837Z,49.80
2019-04-14T06:07:17.783Z,49.60
2019-04-14T06:10:01.377Z,49.60
2019-04-14T06:16:15.631Z,49.50
2019-04-14T06:21:59.606Z,49.80
2019-04-14T06:25:24.162Z,49.60
2019-04-14T06:28:56.088Z,49.70
2019-04-14T06:32:15.373Z,49.50
2019-04-14T06:35:15.156Z,49.50
2019-04-14T06:42:49.535Z,49.50
2019-04-14T06:48:59.790Z,49.40
2019-04-14T06:52:02.921Z,49.40
2019-04-14T06:58:24.273Z,49.10
2019-04-14T07:01:44.110Z,48.90
2019-04-14T07:04:35.772Z,48.60
2019-04-14T07:16:28.538Z,47.80
2019-04-14T07:22:51.394Z,47.60
2019-04-14T07:25:43.644Z,47.50
2019-04-14T07:44:15.099Z,45.90
2019-04-14T07:47:44.856Z,45.50
2019-04-14T07:51:09.390Z,45.20
2019-04-14T07:53:51.451Z,44.90
2019-04-14T08:00:00.777Z,44.00
2019-04-14T08:02:42.135Z,43.50
2019-04-14T08:05:34.126Z,43.30
2019-04-14T08:11:57.424Z,43.20
2019-04-14T08:14:30.894Z,42.60
2019-04-14T08:19:43.668Z,41.80
2019-04-14T08:22:19.812Z,41.50
2019-04-14T08:27:50.546Z,40.50
2019-04-14T08:30:50.501Z,40.00
2019-04-14T08:44:14.828Z,39.00
2019-04-14T08:47:35.532Z,38.30
2019-04-14T08:59:57.619Z,35.60
2019-04-14T09:03:28.182Z,34.60
2019-04-14T09:06:48.151Z,34.20
2019-04-14T09:10:24.166Z,33.80
2019-04-14T09:13:23.225Z,33.90
2019-04-14T09:15:59.058Z,33.30
2019-04-14T09:18:29.867Z,33.00
2019-04-14T09:21:44.078Z,33.00
2019-04-14T09:24:17.473Z,32.80
2019-04-14T09:26:51.170Z,32.70
2019-04-14T09:29:31.464Z,32.40
2019-04-14T09:32:02.542Z,32.30
2019-04-14T09:34:32.063Z,32.20
2019-04-14T09:37:12.455Z,32.10
2019-04-14T09:39:50.227Z,31.50
2019-04-14T09:42:21.057Z,31.20
2019-04-14T09:45:16.661Z,31.20
2019-04-14T09:47:57.339Z,31.00
2019-04-14T09:50:37.015Z,30.50
2019-04-14T09:53:07.191Z,29.70
2019-04-14T09:55:43.722Z,29.70
2019-04-14T09:58:18.228Z,29.50
2019-04-14T10:00:50.736Z,29.40
2019-04-14T10:03:38.123Z,29.50
2019-04-14T10:06:13.604Z,29.40
2019-04-14T10:08:50.573Z,28.90
2019-04-14T10:11:19.692Z,28.30
2019-04-14T10:13:57.095Z,28.10
2019-04-14T10:16:29.611Z,28.10
2019-04-14T10:19:26.275Z,28.30
2019-04-14T10:22:01.627Z,28.20
2019-04-14T10:24:37.433Z,28.10
2019-04-14T10:27:17.857Z,28.00
2019-04-14T10:30:02.131Z,28.00
2019-04-14T10:32:45.565Z,28.10
2019-04-14T10:35:29.863Z,27.80
2019-04-14T10:38:11.826Z,27.50
2019-04-14T10:40:54.499Z,27.30
2019-04-14T10:43:48.496Z,27.30
2019-04-14T10:46:34.174Z,27.10
2019-04-14T10:49:08.928Z,27.00
2019-04-14T10:51:43.474Z,27.00
2019-04-14T10:54:18.109Z,27.20
2019-04-14T10:56:53.042Z,27.10
2019-04-14T10:59:31.303Z,27.00
2019-04-14T11:02:05.303Z,27.20
2019-04-14T11:04:53.602Z,27.30
2019-04-14T11:07:38.877Z,27.30
2019-04-14T11:10:45.959Z,27.20
2019-04-14T11:13:23.261Z,27.20
2019-04-14T11:15:57.187Z,27.40
2019-04-14T11:18:36.414Z,27.40
2019-04-14T11:21:42.442Z,27.20
2019-04-14T11:25:06.900Z,27.30
2019-04-14T11:27:39.726Z,27.40
2019-04-14T11:30:21.968Z,27.40
2019-04-14T11:33:17.793Z,27.40
2019-04-14T11:39:35.717Z,27.70
2019-04-14T11:42:52.907Z,27.40
2019-04-14T11:45:29.084Z,27.50
2019-04-14T11:48:29.762Z,27.50
2019-04-14T11:51:34.462Z,27.50
2019-04-14T11:54:16.621Z,27.30
2019-04-14T11:56:56.753Z,27.30
2019-04-14T12:00:37.194Z,27.20
2019-04-14T12:03:22.926Z,27.30
2019-04-14T12:06:11.830Z,27.10
2019-04-14T12:09:08.237Z,27.10
2019-04-14T12:11:43.464Z,26.90
2019-04-14T12:14:14.321Z,26.50
2019-04-14T12:16:51.902Z,26.20
2019-04-14T12:19:32.201Z,26.00
2019-04-14T12:22:09.334Z,25.90
2019-04-14T12:24:43.975Z,25.80
2019-04-14T12:27:16.225Z,25.70
2019-04-14T12:29:53.011Z,25.70
2019-04-14T12:32:29.321Z,25.60
2019-04-14T12:34:58.796Z,25.60
2019-04-14T12:37:30.755Z,25.50
2019-04-14T12:40:38.901Z,25.70
2019-04-14T12:43:33.241Z,26.70
2019-04-14T12:46:32.379Z,26.50
2019-04-14T12:49:11.619Z,26.50
2019-04-14T12:52:21.002Z,26.40
2019-04-14T12:54:49.583Z,26.30
2019-04-14T12:57:31.990Z,26.20
2019-04-14T13:00:03.224Z,26.10
2019-04-14T13:02:36.988Z,26.20
2019-04-14T13:05:16.093Z,26.30
2019-04-14T13:07:58.280Z,26.10
2019-04-14T13:10:49.191Z,26.20
2019-04-14T13:16:56.773Z,26.40
2019-04-14T13:19:34.089Z,26.60
2019-04-14T13:22:12.236Z,26.90
2019-04-14T13:24:49.083Z,26.90
2019-04-14T13:27:23.226Z,26.80
2019-04-14T13:30:32.312Z,26.90
2019-04-14T13:33:03.128Z,26.90
2019-04-14T13:35:36.460Z,26.90
2019-04-14T13:38:08.205Z,27.00
2019-04-14T13:44:20.765Z,27.00
2019-04-14T13:46:57.437Z,27.10
2019-04-14T13:52:45.757Z,27.40
2019-04-14T13:55:25.212Z,27.50
2019-04-14T13:57:58.372Z,27.50
2019-04-14T14:00:59.758Z,27.70
2019-04-14T14:03:29.417Z,27.80
2019-04-14T14:06:13.905Z,27.70
2019-04-14T14:08:43.553Z,27.70
2019-04-14T14:11:38.717Z,27.90
2019-04-14T14:14:23.968Z,27.90
2019-04-14T14:17:06.376Z,27.90
2019-04-14T14:20:33.607Z,28.00
2019-04-14T14:23:13.145Z,27.70
2019-04-14T14:25:49.496Z,27.50
2019-04-14T14:28:20.025Z,28.10
2019-04-14T14:30:54.073Z,27.70
2019-04-14T14:33:25.285Z,27.70
2019-04-14T14:35:56.435Z,27.70
2019-04-14T14:38:27.696Z,27.80
2019-04-14T14:41:02.438Z,27.80
2019-04-14T14:43:32.629Z,27.90
2019-04-14T14:46:36.772Z,27.90
2019-04-14T14:49:24.991Z,27.80
2019-04-14T14:52:08.742Z,27.90
2019-04-14T14:54:49.351Z,28.00
2019-04-14T14:57:18.669Z,28.10
2019-04-14T14:59:58.266Z,28.20
2019-04-14T15:02:36.677Z,28.40
2019-04-14T15:05:12.450Z,28.40
2019-04-14T15:08:11.300Z,28.30
2019-04-14T15:10:41.989Z,28.00
2019-04-14T15:13:13.594Z,28.20
2019-04-14T15:15:48.405Z,28.30
2019-04-14T15:18:22.752Z,28.50
2019-04-14T15:21:14.354Z,28.70
2019-04-14T15:23:44.399Z,28.10
2019-04-14T15:26:47.980Z,27.50
2019-04-14T15:29:20.796Z,26.90
2019-04-14T15:32:08.019Z,26.10
2019-04-14T15:34:43.394Z,25.70
2019-04-14T15:37:39.550Z,25.40
2019-04-14T15:40:20.433Z,25.00
2019-04-14T15:42:59.136Z,24.60
2019-04-14T15:45:34.634Z,24.70
2019-04-14T15:48:06.677Z,24.10
2019-04-14T15:50:59.874Z,23.70
2019-04-14T15:53:37.733Z,23.70
2019-04-14T15:56:09.306Z,23.40
2019-04-14T15:59:14.761Z,22.90
2019-04-14T16:02:08.269Z,22.40
2019-04-14T16:04:42.994Z,22.50
2019-04-14T16:07:29.086Z,22.60
2019-04-14T16:10:55.094Z,22.40
2019-04-14T16:14:07.056Z,22.40
2019-04-14T16:17:34.743Z,22.40
2019-04-14T16:20:08.625Z,22.40
2019-04-14T16:22:40.861Z,22.10
2019-04-14T16:25:13.041Z,22.30
2019-04-14T16:28:06.439Z,22.70
2019-04-14T16:30:55.486Z,23.00
2019-04-14T16:34:05.078Z,23.50
2019-04-14T16:36:36.537Z,24.00
2019-04-14T16:39:13.808Z,24.40
2019-04-14T16:42:06.683Z,24.80
2019-04-14T16:45:07.338Z,25.10
2019-04-14T16:47:43.083Z,25.40
2019-04-14T16:50:35.576Z,25.70
2019-04-14T16:57:52.741Z,26.40
2019-04-14T17:01:03.760Z,27.50
2019-04-14T17:04:08.362Z,27.80
2019-04-14T17:21:14.375Z,28.20
2019-04-14T17:23:54.074Z,28.40
2019-04-14T17:26:41.679Z,28.60
2019-04-14T17:29:33.754Z,28.80
2019-04-14T17:32:26.788Z,28.90
2019-04-14T17:35:16.566Z,29.20
2019-04-14T17:41:28.150Z,29.50
2019-04-14T17:44:10.939Z,29.50
2019-04-14T17:46:59.438Z,29.60
2019-04-14T17:50:03.147Z,29.60
2019-04-14T17:53:26.398Z,29.70
2019-04-14T17:56:04.769Z,29.80
2019-04-14T17:58:42.795Z,29.90
2019-04-14T18:01:48.797Z,30.00
2019-04-14T18:04:43.168Z,30.10
2019-04-14T18:07:27.551Z,30.30
2019-04-14T18:10:38.796Z,30.60
2019-04-14T18:13:22.338Z,30.90
2019-04-14T18:16:34.221Z,30.80
2019-04-14T18:19:31.798Z,31.20
2019-04-14T18:22:04.409Z,31.30
2019-04-14T18:24:42.763Z,31.50
2019-04-14T18:27:13.999Z,31.70
2019-04-14T18:33:23.589Z,32.10
2019-04-14T18:36:15.813Z,32.40
2019-04-14T18:39:50.408Z,32.60
2019-04-14T18:46:43.485Z,33.40
2019-04-14T18:50:25.122Z,33.90
2019-04-14T18:53:37.255Z,34.40
2019-04-14T18:59:32.498Z,35.10
2019-04-14T19:02:03.583Z,35.40
2019-04-14T19:04:34.478Z,35.90
2019-04-14T19:07:09.267Z,35.90
2019-04-14T19:09:42.031Z,36.30
2019-04-14T19:12:40.845Z,36.20
2019-04-14T19:15:49.652Z,36.30
2019-04-14T19:18:34.894Z,36.30
2019-04-14T19:24:01.214Z,36.80
2019-04-14T19:26:35.964Z,36.90
2019-04-14T19:29:10.711Z,37.10
2019-04-14T19:31:45.965Z,37.10
2019-04-14T19:34:17.344Z,37.30
2019-04-14T19:36:53.718Z,37.30
2019-04-14T19:39:26.829Z,37.50
2019-04-14T19:41:59.946Z,37.70
2019-04-14T19:44:36.694Z,37.80
2019-04-14T19:47:14.303Z,37.80
2019-04-14T19:49:48.237Z,38.00
2019-04-14T19:52:24.509Z,38.10
2019-04-14T19:54:55.393Z,38.30
2019-04-14T19:57:29.415Z,38.20
2019-04-14T20:00:06.560Z,38.10
2019-04-14T20:02:38.009Z,38.50
2019-04-14T20:05:17.518Z,38.40
2019-04-14T20:07:48.195Z,38.60
2019-04-14T20:10:19.982Z,38.70
2019-04-14T20:12:56.524Z,38.90
2019-04-14T20:15:34.562Z,39.00
2019-04-14T20:18:23.914Z,38.90
2019-04-14T20:21:15.157Z,38.80
2019-04-14T20:23:51.852Z,39.00
2019-04-14T20:26:45.923Z,39.60
2019-04-14T20:29:24.906Z,39.20
2019-04-14T20:32:05.238Z,39.40
2019-04-14T20:34:41.717Z,39.60
2019-04-14T20:37:17.614Z,39.50
2019-04-14T20:39:47.067Z,39.50
2019-04-14T20:42:22.486Z,39.50
2019-04-14T20:44:56.409Z,39.80
2019-04-14T20:47:27.487Z,39.90
2019-04-14T20:49:58.443Z,39.90
2019-04-14T20:52:29.433Z,40.00
2019-04-14T20:55:02.802Z,40.10
2019-04-14T20:57:34.897Z,40.20
2019-04-14T21:00:07.510Z,40.30
2019-04-14T21:02:54.226Z,40.30
2019-04-14T21:06:00.521Z,40.30
2019-04-14T21:08:58.717Z,40.40
2019-04-14T21:11:48.097Z,40.30
2019-04-14T21:14:35.054Z,40.60
2019-04-14T21:17:15.236Z,40.50
2019-04-14T21:20:09.415Z,40.70
2019-04-14T21:22:45.590Z,40.80
2019-04-14T21:25:36.846Z,40.70
2019-04-14T21:28:29.106Z,40.90
2019-04-14T21:31:24.694Z,41.00
2019-04-14T21:34:07.034Z,41.10
2019-04-14T21:37:15.300Z,41.30
2019-04-14T21:40:15.423Z,41.10
2019-04-14T21:42:50.383Z,41.20
2019-04-14T21:45:21.378Z,41.30
2019-04-14T21:47:59.521Z,41.50
2019-04-14T21:50:30.164Z,41.50
2019-04-14T21:53:00.605Z,41.50
2019-04-14T21:55:35.000Z,41.70
2019-04-14T21:58:21.930Z,42.00
2019-04-14T22:05:25.205Z,42.20
2019-04-14T22:08:21.331Z,42.20
2019-04-14T22:11:27.550Z,42.30
2019-04-14T22:14:33.238Z,42.60
2019-04-14T22:17:05.625Z,42.60
2019-04-14T22:19:37.370Z,42.60
2019-04-14T22:22:50.581Z,42.60
2019-04-14T22:25:19.557Z,42.90
2019-04-14T22:27:48.471Z,42.90
2019-04-14T22:30:20.057Z,43.10
2019-04-14T22:32:49.113Z,43.20
2019-04-14T22:35:17.941Z,43.30
2019-04-14T22:37:46.820Z,43.30
2019-04-14T22:40:16.168Z,43.30
2019-04-14T22:42:45.222Z,43.50
2019-04-14T22:45:14.513Z,43.60
2019-04-14T22:47:43.401Z,43.70
2019-04-14T22:50:12.698Z,43.90
2019-04-14T22:52:41.584Z,44.00
2019-04-14T22:55:10.697Z,44.20
2019-04-14T22:57:39.706Z,44.30
2019-04-14T23:00:12.086Z,44.40
2019-04-14T23:02:51.584Z,44.50
2019-04-14T23:05:29.790Z,44.70
2019-04-14T23:08:04.633Z,44.70
2019-04-14T23:11:00.504Z,44.80
2019-04-14T23:14:00.266Z,44.90
2019-04-14T23:16:46.748Z,44.90
2019-04-14T23:19:25.068Z,44.80
2019-04-14T23:21:59.535Z,44.80
2019-04-14T23:24:34.829Z,45.00
2019-04-14T23:27:03.768Z,44.90
2019-04-14T23:29:32.686Z,45.00
2019-04-14T23:32:01.556Z,45.10
2019-04-14T23:34:34.438Z,45.30
2019-04-14T23:37:03.494Z,45.30
2019-04-14T23:39:35.061Z,45.50
2019-04-14T23:42:03.808Z,45.50
2019-04-14T23:44:32.662Z,45.70
2019-04-14T23:47:01.601Z,45.60
2019-04-14T23:49:30.479Z,45.60
2019-04-14T23:51:59.353Z,45.60
2019-04-14T23:54:28.360Z,45.60
2019-04-14T23:57:05.464Z,45.40
2019-04-14T23:59:30.198Z,45.20
